Aeroporto :
LOGIN :

Iscrizione | Disclaimer

   EN    FR    IT 

 










Sommario :    VFR   VFR Marginale   IFR   IFR Intensivo   IFR Molto Intensivo
Visibilità : 
Base nubi : 
>= 8 km
>= 3000ft
5 / 8 km
1000 / 3000 ft
1500m / 5 km
500 / 1000 ft
800 / 1500m
200 / 500 ft
< 800m
< 200 ft
Simboli :   Temporali  Nebbia  Neve Forte  Precipitazioni Forti  Vento > 20 kt
SIGMETs :   Varie  Temporali  Ghiacco  Turbolenza  Onda orograficha  Ceneri Vulcaniche







- Altitudine del aeroporto : 821 ft
- Codice IATA : LYS
- Carte del aeroporto


LFLL - Lyon St Exupéry / Satolas

ULTIMO METAR :
  • 132030Z 01005KT 9999 OVC005 11/11 Q1029 NOSIG

METARs OBSOLETI :
  • 132000Z 34005KT 9999 OVC007 11/11 Q1029 NOSIG
  • 131930Z 35004KT 9999 OVC008 11/11 Q1030 NOSIG
  • 131900Z VRB02KT 9999 BKN011 BKN031 12/11 Q1030 NOSIG
  • 131830Z 34003KT 9999 SCT010 BKN031 12/11 Q1030 NOSIG
  • 131800Z 34002KT 9999 FEW009 BKN030 12/11 Q1030 NOSIG
  • 131730Z 33003KT 290V010 9999 FEW009 BKN033 12/11 Q1029 NOSIG

TAF AMD TAF LFLL
Valido dal 13 a 19 ore il 15 a 00 ore UTC


131928Z 1319/1424 33004KT 9999 SCT008
TEMPO 1319/1324 BKN008
BECMG 1321/1324 VRB02KT 5000 BR
BECMG 1400/1402 0400 FG VV///
BECMG 1408/1410 3000 OVC003
TEMPO 1413/1417 8000 NSW FEW005
BECMG 1418/1421 0400 FG VV///
Nessun NOTAM noto per questo aeroporto.



MetMap, La meteo Aeronautica in un colpo d'occhio ! - Copyright ORBIFLY Dicembre 2007 - Disclaimer

ORBIFLY MET'MAP TEAM :

Programmazione e sviluppo : Alexandra Zaïnal
Concezione e sviluppo : Baudouin d'Aumeries
Co-Programmazione e sviluppo : Marc-Olivier Méhu
Supporto tecnico e logistico : Manuel Goepfert
Aiuto per la traduzione : Arnaldo La Scala

Contatto : metmap@orbifly.com




FONTI E CREDITI :

   NOAA